Almira, Washington
Current Conditions -  °F | °C
As of 6:53 PM on Friday 21 Nov 2014 (Local Time) from KEPH Reporting Station
Light Rain Light Rain  
Wind Chill: 35°   Ceiling: 700
Heat Index: 35°   Visibility: 2.5mi
Dew Point: 34°   Wind: 0mph
Humidity: 96%   Direction: NA
Pressure: 29.47"   Gusts: NA
Location:  47.71°N, 118.94°W
Report Text: KEPH 220253Z AUTO 00000KT 2 1/2SM -RA BR OVC007 02/01 A2947 RMK AO2 RAB06FZRAE06 SLP991 P0013 60033 I1000 I3003 T00170011 56037
Loading
Personal Weather Stations






























Interactive Weather Map New forecast layout! Learn more

10-Day Weather Forecast

Advertisements
Track Severe Weather on mobile